sensor_id;sensor_type;location;lat;lon;timestamp;pressure;altitude;pressure_sealevel;temperature;humidity
25610;BME280;13479;49.044;8.716;2023-04-09T04:02:24;99591.91;;;6.75;68.84
25610;BME280;13479;49.044;8.716;2023-04-09T04:04:51;99601.28;;;6.79;69.55
25610;BME280;13479;49.044;8.716;2023-04-09T04:07:16;99617.78;;;6.83;69.38
25610;BME280;13479;49.044;8.716;2023-04-09T04:09:41;99625.91;;;6.94;69.01
25610;BME280;13479;49.044;8.716;2023-04-09T04:12:07;99630.59;;;6.74;69.68
25610;BME280;13479;49.044;8.716;2023-04-09T04:14:32;99636.25;;;6.83;70.00
25610;BME280;13479;49.044;8.716;2023-04-09T04:16:57;99644.00;;;6.86;69.31
25610;BME280;13479;49.044;8.716;2023-04-09T04:19:23;99641.28;;;6.73;69.69
25610;BME280;13479;49.044;8.716;2023-04-09T04:21:48;99646.53;;;6.73;70.03
25610;BME280;13479;49.044;8.716;2023-04-09T04:24:13;99635.84;;;6.60;70.08
25610;BME280;13479;49.044;8.716;2023-04-09T04:26:39;99644.81;;;6.57;69.89
25610;BME280;13479;49.044;8.716;2023-04-09T04:29:04;99643.56;;;6.48;70.28
25610;BME280;13479;49.044;8.716;2023-04-09T04:31:29;99645.25;;;6.49;70.90
25610;BME280;13479;49.044;8.716;2023-04-09T04:33:54;99648.63;;;6.37;71.31
25610;BME280;13479;49.044;8.716;2023-04-09T04:36:20;99655.03;;;6.33;70.88
25610;BME280;13479;49.044;8.716;2023-04-09T04:38:45;99658.00;;;6.27;71.04
25610;BME280;13479;49.044;8.716;2023-04-09T04:41:10;99669.28;;;6.14;71.95
25610;BME280;13479;49.044;8.716;2023-04-09T04:43:36;99669.09;;;6.17;71.93
25610;BME280;13479;49.044;8.716;2023-04-09T04:46:01;99671.16;;;6.12;72.27
25610;BME280;13479;49.044;8.716;2023-04-09T04:48:27;99670.56;;;6.07;72.38
25610;BME280;13479;49.044;8.716;2023-04-09T04:51:00;99682.72;;;6.10;71.99
25610;BME280;13479;49.044;8.716;2023-04-09T04:53:26;99682.22;;;6.03;72.23
25610;BME280;13479;49.044;8.716;2023-04-09T04:55:52;99694.13;;;6.10;72.32
25610;BME280;13479;49.044;8.716;2023-04-09T04:58:17;99702.09;;;6.09;72.81
25610;BME280;13479;49.044;8.716;2023-04-09T05:00:43;99703.63;;;6.13;72.72
25610;BME280;13479;49.044;8.716;2023-04-09T05:03:09;99707.72;;;6.18;72.56
25610;BME280;13479;49.044;8.716;2023-04-09T05:05:34;99719.34;;;6.14;72.52
25610;BME280;13479;49.044;8.716;2023-04-09T05:08:00;99718.66;;;6.27;72.32
25610;BME280;13479;49.044;8.716;2023-04-09T05:10:25;99721.53;;;6.38;72.27
25610;BME280;13479;49.044;8.716;2023-04-09T05:12:50;99752.50;;;6.51;72.24
25610;BME280;13479;49.044;8.716;2023-04-09T05:15:16;99774.00;;;6.59;71.34
25610;BME280;13479;49.044;8.716;2023-04-09T05:17:42;99782.69;;;6.61;71.19
25610;BME280;13479;49.044;8.716;2023-04-09T05:20:09;99772.63;;;6.68;71.88
25610;BME280;13479;49.044;8.716;2023-04-09T05:22:34;99768.34;;;6.81;71.46
25610;BME280;13479;49.044;8.716;2023-04-09T05:25:00;99809.53;;;6.84;71.17
25610;BME280;13479;49.044;8.716;2023-04-09T05:27:26;99792.69;;;6.86;71.20
25610;BME280;13479;49.044;8.716;2023-04-09T05:29:52;99778.66;;;7.00;71.28
25610;BME280;13479;49.044;8.716;2023-04-09T05:32:17;99776.72;;;7.33;70.45
25610;BME280;13479;49.044;8.716;2023-04-09T05:34:42;99834.69;;;7.50;69.70
25610;BME280;13479;49.044;8.716;2023-04-09T05:37:08;99860.34;;;7.77;69.13
25610;BME280;13479;49.044;8.716;2023-04-09T05:39:33;99886.75;;;7.93;67.96
25610;BME280;13479;49.044;8.716;2023-04-09T05:41:58;99905.53;;;8.17;67.16
25610;BME280;13479;49.044;8.716;2023-04-09T05:44:23;99909.28;;;8.42;66.09
25610;BME280;13479;49.044;8.716;2023-04-09T05:46:49;99914.66;;;8.70;64.99
25610;BME280;13479;49.044;8.716;2023-04-09T05:49:14;99901.72;;;8.92;64.20
25610;BME280;13479;49.044;8.716;2023-04-09T05:51:40;99873.38;;;9.20;63.47
25610;BME280;13479;49.044;8.716;2023-04-09T05:54:07;99853.78;;;10.13;61.97
25610;BME280;13479;49.044;8.716;2023-04-09T05:56:32;99859.03;;;10.76;58.78
25610;BME280;13479;49.044;8.716;2023-04-09T05:58:58;99837.31;;;11.77;55.35
25610;BME280;13479;49.044;8.716;2023-04-09T06:01:23;99792.25;;;12.09;54.22
25610;BME280;13479;49.044;8.716;2023-04-09T06:03:48;99793.31;;;12.18;53.60
25610;BME280;13479;49.044;8.716;2023-04-09T06:06:14;99770.13;;;12.09;53.72
25610;BME280;13479;49.044;8.716;2023-04-09T06:08:39;99788.47;;;12.23;52.71
25610;BME280;13479;49.044;8.716;2023-04-09T06:11:08;99777.31;;;12.29;52.19
25610;BME280;13479;49.044;8.716;2023-04-09T06:13:34;99771.66;;;12.23;52.29
25610;BME280;13479;49.044;8.716;2023-04-09T06:15:59;99746.25;;;12.07;53.17
25610;BME280;13479;49.044;8.716;2023-04-09T06:18:25;99748.91;;;12.18;52.91
25610;BME280;13479;49.044;8.716;2023-04-09T06:21:00;99759.09;;;12.46;52.28
25610;BME280;13479;49.044;8.716;2023-04-09T06:23:26;99766.66;;;12.62;51.70
25610;BME280;13479;49.044;8.716;2023-04-09T06:25:51;99766.06;;;12.91;50.95
25610;BME280;13479;49.044;8.716;2023-04-09T06:28:17;99778.75;;;13.41;49.02
25610;BME280;13479;49.044;8.716;2023-04-09T06:30:42;99768.19;;;13.61;48.69
25610;BME280;13479;49.044;8.716;2023-04-09T06:33:07;99772.81;;;13.99;47.72
25610;BME280;13479;49.044;8.716;2023-04-09T06:35:32;99781.66;;;15.09;45.16
25610;BME280;13479;49.044;8.716;2023-04-09T06:37:58;99775.63;;;16.02;43.67
25610;BME280;13479;49.044;8.716;2023-04-09T06:40:23;99786.78;;;16.80;41.68
25610;BME280;13479;49.044;8.716;2023-04-09T06:42:48;99792.50;;;17.21;40.74
25610;BME280;13479;49.044;8.716;2023-04-09T06:45:13;99797.19;;;17.19;39.91
25610;BME280;13479;49.044;8.716;2023-04-09T06:47:39;99803.25;;;17.03;40.15
25610;BME280;13479;49.044;8.716;2023-04-09T06:50:05;99810.78;;;17.44;39.42
25610;BME280;13479;49.044;8.716;2023-04-09T06:52:30;99820.75;;;17.86;38.74
25610;BME280;13479;49.044;8.716;2023-04-09T06:54:56;99815.84;;;18.67;37.54
25610;BME280;13479;49.044;8.716;2023-04-09T06:57:21;99822.09;;;18.93;36.58
25610;BME280;13479;49.044;8.716;2023-04-09T06:59:46;99818.88;;;18.81;36.43
25610;BME280;13479;49.044;8.716;2023-04-09T07:02:12;99828.75;;;18.47;36.91
25610;BME280;13479;49.044;8.716;2023-04-09T07:04:37;99827.69;;;18.32;37.02
25610;BME280;13479;49.044;8.716;2023-04-09T07:07:02;99831.38;;;17.96;37.85
25610;BME280;13479;49.044;8.716;2023-04-09T07:09:28;99834.13;;;17.78;37.98
25610;BME280;13479;49.044;8.716;2023-04-09T07:11:53;99820.47;;;17.37;38.63
25610;BME280;13479;49.044;8.716;2023-04-09T07:14:19;99808.25;;;17.16;39.04
25610;BME280;13479;49.044;8.716;2023-04-09T07:16:45;99797.56;;;16.88;40.18
25610;BME280;13479;49.044;8.716;2023-04-09T07:19:11;99774.44;;;16.51;40.87
25610;BME280;13479;49.044;8.716;2023-04-09T07:21:36;99762.78;;;16.24;41.22
25610;BME280;13479;49.044;8.716;2023-04-09T07:24:01;99735.47;;;16.39;41.43
25610;BME280;13479;49.044;8.716;2023-04-09T07:26:27;99735.97;;;16.96;40.47
25610;BME280;13479;49.044;8.716;2023-04-09T07:28:53;99755.41;;;17.43;39.31
25610;BME280;13479;49.044;8.716;2023-04-09T07:31:18;99777.59;;;18.14;38.69
25610;BME280;13479;49.044;8.716;2023-04-09T07:33:43;99803.59;;;19.31;36.29
25610;BME280;13479;49.044;8.716;2023-04-09T07:36:09;99810.91;;;19.79;35.51
25610;BME280;13479;49.044;8.716;2023-04-09T07:38:34;99825.81;;;21.01;33.86
25610;BME280;13479;49.044;8.716;2023-04-09T07:40:59;99825.75;;;22.52;31.77
25610;BME280;13479;49.044;8.716;2023-04-09T07:43:25;99834.44;;;23.06;30.46
25610;BME280;13479;49.044;8.716;2023-04-09T07:45:50;99840.91;;;23.90;29.97
25610;BME280;13479;49.044;8.716;2023-04-09T07:48:16;99840.53;;;25.71;27.65
25610;BME280;13479;49.044;8.716;2023-04-09T07:50:42;99832.34;;;27.65;25.55
25610;BME280;13479;49.044;8.716;2023-04-09T07:53:09;99838.56;;;28.77;23.13
25610;BME280;13479;49.044;8.716;2023-04-09T07:55:34;99844.97;;;28.03;23.77
25610;BME280;13479;49.044;8.716;2023-04-09T07:58:00;99861.56;;;28.39;23.62
25610;BME280;13479;49.044;8.716;2023-04-09T08:00:25;99859.66;;;28.39;23.40
25610;BME280;13479;49.044;8.716;2023-04-09T08:02:50;99861.75;;;27.81;23.29
25610;BME280;13479;49.044;8.716;2023-04-09T08:05:17;99855.75;;;27.22;24.20
25610;BME280;13479;49.044;8.716;2023-04-09T08:07:43;99870.41;;;26.57;25.04
25610;BME280;13479;49.044;8.716;2023-04-09T08:10:08;99862.44;;;27.26;24.42
25610;BME280;13479;49.044;8.716;2023-04-09T08:12:38;99863.44;;;27.32;24.22
25610;BME280;13479;49.044;8.716;2023-04-09T08:15:04;99857.47;;;28.11;23.58
25610;BME280;13479;49.044;8.716;2023-04-09T08:17:30;99861.03;;;29.21;22.04
25610;BME280;13479;49.044;8.716;2023-04-09T08:19:55;99849.44;;;29.85;21.61
25610;BME280;13479;49.044;8.716;2023-04-09T08:22:21;99844.88;;;29.32;21.54
25610;BME280;13479;49.044;8.716;2023-04-09T08:24:50;99863.63;;;29.04;21.57
25610;BME280;13479;49.044;8.716;2023-04-09T08:27:15;99854.41;;;28.87;21.61
25610;BME280;13479;49.044;8.716;2023-04-09T08:29:42;99862.84;;;27.80;22.40
25610;BME280;13479;49.044;8.716;2023-04-09T08:32:07;99865.88;;;27.15;23.05
25610;BME280;13479;49.044;8.716;2023-04-09T08:34:32;99861.31;;;26.24;24.15
25610;BME280;13479;49.044;8.716;2023-04-09T08:36:57;99875.59;;;24.43;26.06
25610;BME280;13479;49.044;8.716;2023-04-09T08:39:23;99857.34;;;23.10;28.05
25610;BME280;13479;49.044;8.716;2023-04-09T08:41:50;99855.00;;;21.58;30.18
25610;BME280;13479;49.044;8.716;2023-04-09T08:44:15;99862.03;;;20.51;31.76
25610;BME280;13479;49.044;8.716;2023-04-09T08:46:41;99860.84;;;19.17;33.88
25610;BME280;13479;49.044;8.716;2023-04-09T08:49:08;99864.31;;;18.33;34.16
25610;BME280;13479;49.044;8.716;2023-04-09T08:51:33;99852.16;;;17.59;35.29
25610;BME280;13479;49.044;8.716;2023-04-09T08:54:00;99855.44;;;17.09;36.28
25610;BME280;13479;49.044;8.716;2023-04-09T08:56:25;99849.69;;;16.67;37.05
25610;BME280;13479;49.044;8.716;2023-04-09T08:58:51;99852.94;;;16.43;39.50
25610;BME280;13479;49.044;8.716;2023-04-09T09:01:25;99862.72;;;16.34;39.15
25610;BME280;13479;49.044;8.716;2023-04-09T09:04:04;99832.03;;;16.19;37.88
25610;BME280;13479;49.044;8.716;2023-04-09T09:06:32;99824.38;;;16.06;38.01
25610;BME280;13479;49.044;8.716;2023-04-09T09:11:30;99807.34;;;15.97;37.94
25610;BME280;13479;49.044;8.716;2023-04-09T09:13:57;99805.59;;;16.52;36.24
25610;BME280;13479;49.044;8.716;2023-04-09T09:16:23;99786.94;;;17.41;35.37
25610;BME280;13479;49.044;8.716;2023-04-09T09:18:48;99791.75;;;18.41;33.53
25610;BME280;13479;49.044;8.716;2023-04-09T09:21:15;99799.09;;;18.23;33.30
25610;BME280;13479;49.044;8.716;2023-04-09T09:23:41;99801.09;;;17.51;34.49
25610;BME280;13479;49.044;8.716;2023-04-09T09:26:20;99796.06;;;17.04;35.58
25610;BME280;13479;49.044;8.716;2023-04-09T09:28:47;99784.81;;;16.82;35.53
25610;BME280;13479;49.044;8.716;2023-04-09T09:31:14;99782.34;;;16.71;35.55
25610;BME280;13479;49.044;8.716;2023-04-09T09:33:39;99776.53;;;16.57;35.99
25610;BME280;13479;49.044;8.716;2023-04-09T09:36:05;99755.66;;;17.58;35.18
25610;BME280;13479;49.044;8.716;2023-04-09T09:38:33;99778.63;;;18.30;33.90
25610;BME280;13479;49.044;8.716;2023-04-09T09:41:15;99784.41;;;18.60;33.27
25610;BME280;13479;49.044;8.716;2023-04-09T09:43:42;99792.84;;;18.90;31.83
25610;BME280;13479;49.044;8.716;2023-04-09T09:46:08;99788.50;;;19.05;32.25
25610;BME280;13479;49.044;8.716;2023-04-09T09:48:34;99801.53;;;20.46;30.00
25610;BME280;13479;49.044;8.716;2023-04-09T09:51:02;99800.47;;;20.55;29.34
25610;BME280;13479;49.044;8.716;2023-04-09T09:53:36;99804.44;;;20.44;28.87
25610;BME280;13479;49.044;8.716;2023-04-09T09:56:06;99818.25;;;20.10;29.60
25610;BME280;13479;49.044;8.716;2023-04-09T09:58:40;99820.13;;;20.41;29.54
25610;BME280;13479;49.044;8.716;2023-04-09T10:01:10;99812.47;;;21.22;28.05
25610;BME280;13479;49.044;8.716;2023-04-09T10:03:37;99818.72;;;21.23;28.17
25610;BME280;13479;49.044;8.716;2023-04-09T10:06:04;99813.66;;;20.81;28.49
25610;BME280;13479;49.044;8.716;2023-04-09T10:08:30;99830.34;;;20.14;28.92
25610;BME280;13479;49.044;8.716;2023-04-09T10:10:57;99818.22;;;19.37;29.75
25610;BME280;13479;49.044;8.716;2023-04-09T10:13:25;99812.66;;;18.80;30.73
25610;BME280;13479;49.044;8.716;2023-04-09T10:15:55;99805.22;;;18.49;31.19
25610;BME280;13479;49.044;8.716;2023-04-09T10:18:21;99795.03;;;18.10;31.27
25610;BME280;13479;49.044;8.716;2023-04-09T10:20:55;99798.59;;;17.84;32.09
25610;BME280;13479;49.044;8.716;2023-04-09T10:23:39;99783.88;;;17.36;32.62
25610;BME280;13479;49.044;8.716;2023-04-09T10:26:05;99774.38;;;17.15;32.67
25610;BME280;13479;49.044;8.716;2023-04-09T10:28:30;99762.50;;;17.00;32.67
25610;BME280;13479;49.044;8.716;2023-04-09T10:30:57;99763.88;;;17.04;32.40
25610;BME280;13479;49.044;8.716;2023-04-09T10:33:24;99751.06;;;16.97;32.66
25610;BME280;13479;49.044;8.716;2023-04-09T10:35:54;99749.94;;;16.82;32.66
25610;BME280;13479;49.044;8.716;2023-04-09T10:38:46;99748.88;;;16.57;32.80
25610;BME280;13479;49.044;8.716;2023-04-09T10:41:27;99744.19;;;16.41;33.08
25610;BME280;13479;49.044;8.716;2023-04-09T10:43:53;99743.91;;;16.44;33.52
25610;BME280;13479;49.044;8.716;2023-04-09T10:46:29;99755.91;;;16.40;32.68
25610;BME280;13479;49.044;8.716;2023-04-09T10:49:10;99741.03;;;16.27;33.28
25610;BME280;13479;49.044;8.716;2023-04-09T10:51:37;99726.66;;;16.28;34.24
25610;BME280;13479;49.044;8.716;2023-04-09T10:59:37;99726.34;;;17.04;32.63
25610;BME280;13479;49.044;8.716;2023-04-09T11:02:07;99733.31;;;16.96;31.98
25610;BME280;13479;49.044;8.716;2023-04-09T11:07:16;99737.63;;;17.42;31.87
25610;BME280;13479;49.044;8.716;2023-04-09T11:09:43;99744.09;;;17.57;31.89
25610;BME280;13479;49.044;8.716;2023-04-09T11:12:10;99745.41;;;17.53;32.36
25610;BME280;13479;49.044;8.716;2023-04-09T11:14:35;99754.13;;;17.55;30.79
25610;BME280;13479;49.044;8.716;2023-04-09T11:17:02;99770.16;;;16.94;28.63
25610;BME280;13479;49.044;8.716;2023-04-09T11:19:28;99754.63;;;16.44;29.17
25610;BME280;13479;49.044;8.716;2023-04-09T11:21:53;99768.31;;;16.41;29.27
25610;BME280;13479;49.044;8.716;2023-04-09T11:24:18;99771.91;;;16.31;29.76
25610;BME280;13479;49.044;8.716;2023-04-09T11:26:44;99780.81;;;16.04;30.35
25610;BME280;13479;49.044;8.716;2023-04-09T11:29:10;99766.47;;;15.95;30.68
25610;BME280;13479;49.044;8.716;2023-04-09T11:31:35;99763.41;;;15.90;30.44
25610;BME280;13479;49.044;8.716;2023-04-09T11:34:01;99753.50;;;16.00;30.60
25610;BME280;13479;49.044;8.716;2023-04-09T11:36:27;99757.06;;;15.81;30.88
25610;BME280;13479;49.044;8.716;2023-04-09T11:38:54;99745.72;;;15.69;31.87
25610;BME280;13479;49.044;8.716;2023-04-09T11:41:36;99745.16;;;15.66;31.59
25610;BME280;13479;49.044;8.716;2023-04-09T11:44:03;99736.09;;;15.77;31.39
25610;BME280;13479;49.044;8.716;2023-04-09T11:46:31;99721.19;;;15.74;31.45
25610;BME280;13479;49.044;8.716;2023-04-09T11:48:56;99721.72;;;16.05;31.42
25610;BME280;13479;49.044;8.716;2023-04-09T11:51:22;99720.91;;;16.23;30.95
25610;BME280;13479;49.044;8.716;2023-04-09T11:53:48;99731.88;;;16.30;30.82
25610;BME280;13479;49.044;8.716;2023-04-09T11:56:15;99735.16;;;16.42;30.14
25610;BME280;13479;49.044;8.716;2023-04-09T11:58:44;99737.00;;;16.59;30.56
25610;BME280;13479;49.044;8.716;2023-04-09T12:01:11;99734.69;;;16.64;31.82
25610;BME280;13479;49.044;8.716;2023-04-09T12:03:36;99729.16;;;16.84;31.42
25610;BME280;13479;49.044;8.716;2023-04-09T12:06:03;99731.06;;;17.10;30.88
25610;BME280;13479;49.044;8.716;2023-04-09T12:08:29;99758.88;;;17.35;29.73
25610;BME280;13479;49.044;8.716;2023-04-09T12:10:55;99756.66;;;17.31;29.69
25610;BME280;13479;49.044;8.716;2023-04-09T12:13:20;99753.50;;;17.09;29.39
25610;BME280;13479;49.044;8.716;2023-04-09T12:15:47;99757.53;;;16.68;29.90
25610;BME280;13479;49.044;8.716;2023-04-09T12:18:13;99757.75;;;16.57;30.07
25610;BME280;13479;49.044;8.716;2023-04-09T12:20:42;99769.16;;;16.23;30.36
25610;BME280;13479;49.044;8.716;2023-04-09T12:23:11;99758.88;;;15.90;30.65
25610;BME280;13479;49.044;8.716;2023-04-09T12:25:42;99751.03;;;15.79;31.28
25610;BME280;13479;49.044;8.716;2023-04-09T12:28:10;99730.13;;;15.83;32.21
25610;BME280;13479;49.044;8.716;2023-04-09T12:30:35;99745.38;;;15.82;30.27
25610;BME280;13479;49.044;8.716;2023-04-09T12:33:02;99739.56;;;15.59;29.78
25610;BME280;13479;49.044;8.716;2023-04-09T12:35:28;99744.41;;;15.46;30.51
25610;BME280;13479;49.044;8.716;2023-04-09T12:37:53;99728.22;;;15.37;31.57
25610;BME280;13479;49.044;8.716;2023-04-09T12:40:19;99719.69;;;15.24;31.11
25610;BME280;13479;49.044;8.716;2023-04-09T12:42:45;99709.56;;;15.18;31.63
25610;BME280;13479;49.044;8.716;2023-04-09T12:45:15;99708.69;;;15.27;31.21
25610;BME280;13479;49.044;8.716;2023-04-09T12:47:41;99719.69;;;15.24;30.57
25610;BME280;13479;49.044;8.716;2023-04-09T12:50:08;99699.28;;;15.23;31.96
25610;BME280;13479;49.044;8.716;2023-04-09T12:52:34;99702.66;;;15.25;31.46
25610;BME280;13479;49.044;8.716;2023-04-09T12:55:00;99699.72;;;15.18;31.61
25610;BME280;13479;49.044;8.716;2023-04-09T12:57:26;99695.81;;;15.12;31.47
25610;BME280;13479;49.044;8.716;2023-04-09T12:59:51;99702.78;;;15.23;31.44
25610;BME280;13479;49.044;8.716;2023-04-09T13:02:18;99673.25;;;15.25;31.96
25610;BME280;13479;49.044;8.716;2023-04-09T13:04:43;99687.16;;;15.28;30.51
25610;BME280;13479;49.044;8.716;2023-04-09T13:07:08;99677.53;;;15.08;31.70
25610;BME280;13479;49.044;8.716;2023-04-09T13:09:34;99664.25;;;15.16;31.49
25610;BME280;13479;49.044;8.716;2023-04-09T13:12:00;99663.41;;;15.16;31.80
25610;BME280;13479;49.044;8.716;2023-04-09T13:14:26;99682.56;;;15.11;31.86
25610;BME280;13479;49.044;8.716;2023-04-09T13:16:51;99671.91;;;15.01;31.90
25610;BME280;13479;49.044;8.716;2023-04-09T13:19:18;99666.50;;;15.11;32.21
25610;BME280;13479;49.044;8.716;2023-04-09T13:21:43;99666.25;;;15.04;31.38
25610;BME280;13479;49.044;8.716;2023-04-09T13:24:08;99659.22;;;15.03;31.92
25610;BME280;13479;49.044;8.716;2023-04-09T13:26:34;99651.34;;;15.02;32.40
25610;BME280;13479;49.044;8.716;2023-04-09T13:28:59;99651.59;;;15.18;32.38
25610;BME280;13479;49.044;8.716;2023-04-09T13:31:25;99655.56;;;15.04;31.55
25610;BME280;13479;49.044;8.716;2023-04-09T13:33:51;99655.38;;;15.16;32.13
25610;BME280;13479;49.044;8.716;2023-04-09T13:36:16;99643.50;;;15.28;31.46
25610;BME280;13479;49.044;8.716;2023-04-09T13:38:41;99641.94;;;15.35;31.76
25610;BME280;13479;49.044;8.716;2023-04-09T13:41:07;99649.25;;;15.61;31.67
25610;BME280;13479;49.044;8.716;2023-04-09T13:43:32;99652.56;;;15.45;30.99
25610;BME280;13479;49.044;8.716;2023-04-09T13:45:57;99645.34;;;15.55;31.87
25610;BME280;13479;49.044;8.716;2023-04-09T13:48:23;99655.59;;;15.60;31.40
25610;BME280;13479;49.044;8.716;2023-04-09T13:50:49;99648.34;;;15.52;31.08
25610;BME280;13479;49.044;8.716;2023-04-09T13:53:15;99650.06;;;15.43;31.40
25610;BME280;13479;49.044;8.716;2023-04-09T13:55:42;99656.19;;;15.54;31.78
25610;BME280;13479;49.044;8.716;2023-04-09T13:58:07;99643.72;;;15.44;31.79
25610;BME280;13479;49.044;8.716;2023-04-09T14:00:33;99627.84;;;15.61;32.13
25610;BME280;13479;49.044;8.716;2023-04-09T14:02:58;99631.69;;;15.77;30.88
25610;BME280;13479;49.044;8.716;2023-04-09T14:05:24;99638.09;;;15.66;31.19
25610;BME280;13479;49.044;8.716;2023-04-09T14:07:50;99637.47;;;15.82;30.75
25610;BME280;13479;49.044;8.716;2023-04-09T14:10:15;99634.88;;;15.90;30.94
25610;BME280;13479;49.044;8.716;2023-04-09T14:12:41;99633.75;;;15.83;30.57
25610;BME280;13479;49.044;8.716;2023-04-09T14:15:06;99641.00;;;16.00;30.86
25610;BME280;13479;49.044;8.716;2023-04-09T14:17:32;99636.41;;;16.11;31.02
25610;BME280;13479;49.044;8.716;2023-04-09T14:19:57;99629.31;;;16.01;31.31
25610;BME280;13479;49.044;8.716;2023-04-09T14:22:23;99644.00;;;16.15;30.90
25610;BME280;13479;49.044;8.716;2023-04-09T14:24:49;99641.00;;;16.00;31.33
25610;BME280;13479;49.044;8.716;2023-04-09T14:27:15;99629.31;;;16.01;31.76
25610;BME280;13479;49.044;8.716;2023-04-09T14:29:41;99630.31;;;16.00;32.12
25610;BME280;13479;49.044;8.716;2023-04-09T14:32:06;99625.25;;;15.97;31.32
25610;BME280;13479;49.044;8.716;2023-04-09T14:34:31;99634.78;;;15.82;30.79
25610;BME280;13479;49.044;8.716;2023-04-09T14:36:57;99636.88;;;15.78;30.82
25610;BME280;13479;49.044;8.716;2023-04-09T14:39:22;99639.56;;;15.78;30.44
25610;BME280;13479;49.044;8.716;2023-04-09T14:41:48;99632.31;;;15.70;30.98
25610;BME280;13479;49.044;8.716;2023-04-09T14:44:14;99628.50;;;15.73;30.70
25610;BME280;13479;49.044;8.716;2023-04-09T14:46:39;99631.00;;;15.74;30.47
25610;BME280;13479;49.044;8.716;2023-04-09T14:49:05;99626.09;;;15.70;31.14
25610;BME280;13479;49.044;8.716;2023-04-09T14:51:30;99611.69;;;15.81;31.83
25610;BME280;13479;49.044;8.716;2023-04-09T14:53:56;99618.31;;;15.77;31.38
25610;BME280;13479;49.044;8.716;2023-04-09T14:56:22;99610.50;;;15.65;31.78
25610;BME280;13479;49.044;8.716;2023-04-09T14:58:49;99597.53;;;15.70;32.17
25610;BME280;13479;49.044;8.716;2023-04-09T15:01:14;99603.47;;;15.82;31.42
25610;BME280;13479;49.044;8.716;2023-04-09T15:03:40;99610.97;;;15.79;31.43
25610;BME280;13479;49.044;8.716;2023-04-09T15:06:06;99598.34;;;15.71;31.21
25610;BME280;13479;49.044;8.716;2023-04-09T15:08:31;99595.41;;;15.92;31.71
25610;BME280;13479;49.044;8.716;2023-04-09T15:10:57;99603.66;;;15.99;30.57
25610;BME280;13479;49.044;8.716;2023-04-09T15:13:22;99600.44;;;15.95;30.62
25610;BME280;13479;49.044;8.716;2023-04-09T15:15:48;99601.44;;;15.94;30.57
25610;BME280;13479;49.044;8.716;2023-04-09T15:18:13;99599.38;;;15.88;30.58
25610;BME280;13479;49.044;8.716;2023-04-09T15:20:39;99601.38;;;15.86;31.06
25610;BME280;13479;49.044;8.716;2023-04-09T15:23:04;99597.16;;;16.01;31.18
25610;BME280;13479;49.044;8.716;2023-04-09T15:25:30;99591.06;;;15.91;31.49
25610;BME280;13479;49.044;8.716;2023-04-09T15:27:55;99599.63;;;16.13;29.79
25610;BME280;13479;49.044;8.716;2023-04-09T15:30:21;99596.16;;;16.20;29.95
25610;BME280;13479;49.044;8.716;2023-04-09T15:32:46;99591.41;;;16.32;30.83
25610;BME280;13479;49.044;8.716;2023-04-09T15:35:11;99602.13;;;16.32;30.75
25610;BME280;13479;49.044;8.716;2023-04-09T15:37:40;99603.97;;;16.32;30.33
25610;BME280;13479;49.044;8.716;2023-04-09T15:40:06;99602.34;;;16.21;30.14
25610;BME280;13479;49.044;8.716;2023-04-09T15:42:31;99600.72;;;16.28;31.04
25610;BME280;13479;49.044;8.716;2023-04-09T15:44:56;99598.63;;;16.14;31.03
25610;BME280;13479;49.044;8.716;2023-04-09T15:47:22;99591.88;;;16.10;31.31
25610;BME280;13479;49.044;8.716;2023-04-09T15:49:47;99593.50;;;16.02;30.69
25610;BME280;13479;49.044;8.716;2023-04-09T15:52:12;99593.63;;;16.01;30.69
25610;BME280;13479;49.044;8.716;2023-04-09T15:54:38;99592.81;;;16.00;30.93
25610;BME280;13479;49.044;8.716;2023-04-09T15:57:03;99591.13;;;15.99;30.88
25610;BME280;13479;49.044;8.716;2023-04-09T15:59:28;99581.94;;;16.02;31.27
25610;BME280;13479;49.044;8.716;2023-04-09T16:01:53;99581.78;;;16.03;31.21
25610;BME280;13479;49.044;8.716;2023-04-09T16:04:19;99578.09;;;16.04;31.49
25610;BME280;13479;49.044;8.716;2023-04-09T16:06:44;99567.09;;;16.08;31.72
25610;BME280;13479;49.044;8.716;2023-04-09T16:09:10;99565.50;;;16.15;31.79
25610;BME280;13479;49.044;8.716;2023-04-09T16:11:35;99577.59;;;16.27;31.27
25610;BME280;13479;49.044;8.716;2023-04-09T16:14:01;99570.22;;;16.21;31.45
25610;BME280;13479;49.044;8.716;2023-04-09T16:16:28;99563.25;;;16.10;31.91
25610;BME280;13479;49.044;8.716;2023-04-09T16:18:53;99555.78;;;15.96;32.68
25610;BME280;13479;49.044;8.716;2023-04-09T16:21:18;99555.84;;;16.04;32.48
25610;BME280;13479;49.044;8.716;2023-04-09T16:23:44;99552.56;;;15.92;32.25
25610;BME280;13479;49.044;8.716;2023-04-09T16:26:09;99560.16;;;15.97;31.81
25610;BME280;13479;49.044;8.716;2023-04-09T16:28:35;99564.41;;;15.89;31.53
25610;BME280;13479;49.044;8.716;2023-04-09T16:31:00;99569.13;;;15.78;32.06
25610;BME280;13479;49.044;8.716;2023-04-09T16:33:26;99560.09;;;15.60;32.25
25610;BME280;13479;49.044;8.716;2023-04-09T16:35:51;99561.56;;;15.55;32.63
25610;BME280;13479;49.044;8.716;2023-04-09T16:38:16;99559.25;;;15.60;32.36
25610;BME280;13479;49.044;8.716;2023-04-09T16:40:42;99541.06;;;15.46;32.60
25610;BME280;13479;49.044;8.716;2023-04-09T16:43:08;99537.69;;;15.43;33.41
25610;BME280;13479;49.044;8.716;2023-04-09T16:45:33;99537.44;;;15.37;33.21
25610;BME280;13479;49.044;8.716;2023-04-09T16:47:58;99550.81;;;15.37;32.44
25610;BME280;13479;49.044;8.716;2023-04-09T16:50:24;99546.97;;;15.21;33.32
25610;BME280;13479;49.044;8.716;2023-04-09T16:52:49;99541.69;;;15.11;33.63
25610;BME280;13479;49.044;8.716;2023-04-09T16:55:15;99533.59;;;15.21;33.89
25610;BME280;13479;49.044;8.716;2023-04-09T16:57:40;99533.94;;;15.36;33.50
25610;BME280;13479;49.044;8.716;2023-04-09T17:00:07;99543.78;;;15.36;32.68
25610;BME280;13479;49.044;8.716;2023-04-09T17:02:33;99544.25;;;15.31;32.38
25610;BME280;13479;49.044;8.716;2023-04-09T17:04:58;99542.25;;;15.33;32.33
25610;BME280;13479;49.044;8.716;2023-04-09T17:07:24;99533.19;;;15.62;32.61
25610;BME280;13479;49.044;8.716;2023-04-09T17:09:49;99537.34;;;15.93;32.19